createdAt,value
2022-12-07T00:01:16.113Z,100.00
2022-12-07T00:03:46.113Z,100.00
2022-12-07T00:06:14.516Z,100.00
2022-12-07T00:08:41.211Z,100.00
2022-12-07T00:11:13.155Z,100.00
2022-12-07T00:13:40.794Z,100.00
2022-12-07T00:16:09.348Z,100.00
2022-12-07T00:18:36.588Z,100.00
2022-12-07T00:21:05.977Z,100.00
2022-12-07T00:23:33.183Z,100.00
2022-12-07T00:26:11.307Z,100.00
2022-12-07T00:28:39.790Z,100.00
2022-12-07T00:31:09.708Z,100.00
2022-12-07T00:33:37.359Z,100.00
2022-12-07T00:36:08.187Z,100.00
2022-12-07T00:38:36.499Z,100.00
2022-12-07T00:41:05.519Z,100.00
2022-12-07T00:43:32.628Z,100.00
2022-12-07T00:45:59.739Z,100.00
2022-12-07T00:48:26.707Z,100.00
2022-12-07T00:50:53.736Z,100.00
2022-12-07T00:53:20.758Z,100.00
2022-12-07T00:55:47.686Z,100.00
2022-12-07T00:58:14.830Z,100.00
2022-12-07T01:00:45.504Z,100.00
2022-12-07T01:03:14.794Z,100.00
2022-12-07T01:05:49.496Z,100.00
2022-12-07T01:08:16.269Z,100.00
2022-12-07T01:10:43.145Z,100.00
2022-12-07T01:13:09.639Z,100.00
2022-12-07T01:15:41.436Z,100.00
2022-12-07T01:18:08.121Z,100.00
2022-12-07T01:20:34.689Z,100.00
2022-12-07T01:23:01.403Z,100.00
2022-12-07T01:25:28.061Z,100.00
2022-12-07T01:27:54.576Z,100.00
2022-12-07T01:30:21.263Z,100.00
2022-12-07T01:32:47.891Z,100.00
2022-12-07T01:35:14.857Z,100.00
2022-12-07T01:37:41.503Z,100.00
2022-12-07T01:40:09.116Z,100.00
2022-12-07T01:42:35.874Z,100.00
2022-12-07T01:45:41.185Z,100.00
2022-12-07T01:48:12.375Z,100.00
2022-12-07T01:50:40.884Z,100.00
2022-12-07T01:53:10.508Z,100.00
2022-12-07T01:55:41.232Z,100.00
2022-12-07T01:58:07.871Z,100.00
2022-12-07T02:00:37.170Z,100.00
2022-12-07T02:03:33.280Z,100.00
2022-12-07T02:06:01.270Z,100.00
2022-12-07T02:08:28.232Z,100.00
2022-12-07T02:10:55.878Z,100.00
2022-12-07T02:13:37.727Z,100.00
2022-12-07T02:16:19.780Z,100.00
2022-12-07T02:19:04.721Z,100.00
2022-12-07T02:21:54.087Z,100.00
2022-12-07T02:24:32.893Z,100.00
2022-12-07T02:27:24.778Z,100.00
2022-12-07T02:29:57.284Z,100.00
2022-12-07T02:32:27.106Z,100.00
2022-12-07T02:35:04.594Z,100.00
2022-12-07T02:37:49.268Z,100.00
2022-12-07T02:40:28.098Z,100.00
2022-12-07T02:43:02.861Z,100.00
2022-12-07T02:45:32.277Z,100.00
2022-12-07T02:48:01.575Z,100.00
2022-12-07T02:50:28.452Z,100.00
2022-12-07T02:52:55.511Z,100.00
2022-12-07T02:55:29.091Z,100.00
2022-12-07T02:58:28.309Z,100.00
2022-12-07T03:01:27.252Z,100.00
2022-12-07T03:04:08.885Z,100.00
2022-12-07T03:06:44.903Z,100.00
2022-12-07T03:09:38.984Z,100.00
2022-12-07T03:12:20.044Z,100.00
2022-12-07T03:14:59.393Z,100.00
2022-12-07T03:17:29.816Z,100.00
2022-12-07T03:20:00.228Z,100.00
2022-12-07T03:22:30.316Z,100.00
2022-12-07T03:25:01.680Z,100.00
2022-12-07T03:27:34.939Z,100.00
2022-12-07T03:30:09.311Z,100.00
2022-12-07T03:32:49.491Z,100.00
2022-12-07T03:35:20.802Z,100.00
2022-12-07T03:38:00.679Z,100.00
2022-12-07T03:40:35.728Z,100.00
2022-12-07T03:43:04.455Z,100.00
2022-12-07T03:45:41.458Z,100.00
2022-12-07T03:48:32.040Z,100.00
2022-12-07T03:51:54.112Z,100.00
2022-12-07T03:54:27.778Z,100.00
2022-12-07T03:56:55.493Z,100.00
2022-12-07T03:59:23.349Z,100.00
2022-12-07T04:02:02.322Z,100.00
2022-12-07T04:04:30.112Z,100.00
2022-12-07T04:06:56.605Z,100.00
2022-12-07T04:09:23.925Z,100.00
2022-12-07T04:11:50.493Z,100.00
2022-12-07T04:14:19.923Z,100.00
2022-12-07T04:16:51.137Z,100.00
2022-12-07T04:19:19.300Z,100.00
2022-12-07T04:21:46.411Z,100.00
2022-12-07T04:24:15.401Z,100.00
2022-12-07T04:26:43.135Z,100.00
2022-12-07T04:29:10.444Z,100.00
2022-12-07T04:31:37.730Z,100.00
2022-12-07T04:34:05.228Z,100.00
2022-12-07T04:36:32.581Z,100.00
2022-12-07T04:38:59.472Z,100.00
2022-12-07T04:41:28.923Z,100.00
2022-12-07T04:44:03.400Z,100.00
2022-12-07T04:46:32.126Z,100.00
2022-12-07T04:48:59.150Z,100.00
2022-12-07T04:51:28.436Z,100.00
2022-12-07T04:53:56.873Z,100.00
2022-12-07T04:56:24.316Z,100.00
2022-12-07T04:58:52.260Z,100.00
2022-12-07T05:01:23.789Z,100.00
2022-12-07T05:03:50.584Z,100.00
2022-12-07T05:06:17.600Z,100.00
2022-12-07T05:08:44.450Z,100.00
2022-12-07T05:11:31.820Z,100.00
2022-12-07T05:13:58.516Z,100.00
2022-12-07T05:16:25.449Z,100.00
2022-12-07T05:18:52.520Z,100.00
2022-12-07T05:21:19.215Z,100.00
2022-12-07T05:23:46.440Z,100.00
2022-12-07T05:26:12.969Z,100.00
2022-12-07T05:28:39.566Z,100.00
2022-12-07T05:31:06.137Z,100.00
2022-12-07T05:33:32.957Z,100.00
2022-12-07T05:35:59.450Z,100.00
2022-12-07T05:38:26.159Z,100.00
2022-12-07T05:40:52.650Z,100.00
2022-12-07T05:43:19.372Z,100.00
2022-12-07T05:45:45.988Z,100.00
2022-12-07T05:48:12.528Z,100.00
2022-12-07T05:50:39.067Z,100.00
2022-12-07T05:53:05.702Z,100.00
2022-12-07T05:55:32.207Z,100.00
2022-12-07T05:58:17.112Z,100.00
2022-12-07T06:00:46.759Z,100.00
2022-12-07T06:03:17.481Z,100.00
2022-12-07T06:05:46.628Z,100.00
2022-12-07T06:08:13.349Z,100.00
2022-12-07T06:10:39.936Z,100.00
2022-12-07T06:13:06.437Z,100.00
2022-12-07T06:15:32.985Z,100.00
2022-12-07T06:17:59.585Z,100.00
2022-12-07T06:20:26.164Z,100.00
2022-12-07T06:22:52.655Z,100.00
2022-12-07T06:25:19.310Z,100.00
2022-12-07T06:27:45.827Z,100.00
2022-12-07T06:30:12.672Z,100.00
2022-12-07T06:32:39.388Z,100.00
2022-12-07T06:35:06.159Z,100.00
2022-12-07T06:37:32.765Z,100.00
2022-12-07T06:39:59.400Z,100.00
2022-12-07T06:42:26.077Z,100.00
2022-12-07T06:44:52.592Z,100.00
2022-12-07T06:50:07.182Z,100.00
2022-12-07T06:52:33.883Z,100.00
2022-12-07T06:55:00.481Z,100.00
2022-12-07T06:57:27.335Z,100.00
2022-12-07T06:59:53.866Z,100.00
2022-12-07T07:02:20.456Z,100.00
2022-12-07T07:04:47.075Z,100.00
2022-12-07T07:07:13.648Z,100.00
2022-12-07T07:09:40.250Z,100.00
2022-12-07T07:12:06.917Z,100.00
2022-12-07T07:14:33.833Z,100.00
2022-12-07T07:17:03.718Z,100.00
2022-12-07T07:19:30.329Z,100.00
2022-12-07T07:21:56.888Z,100.00
2022-12-07T07:24:23.441Z,100.00
2022-12-07T07:26:49.945Z,100.00
2022-12-07T07:29:16.519Z,100.00
2022-12-07T07:31:43.144Z,100.00
2022-12-07T07:34:09.804Z,100.00
2022-12-07T07:36:36.419Z,100.00
2022-12-07T07:39:03.420Z,100.00
2022-12-07T07:41:30.091Z,100.00
2022-12-07T07:43:56.677Z,100.00
2022-12-07T07:46:23.540Z,100.00
2022-12-07T07:48:50.216Z,100.00
2022-12-07T07:51:17.091Z,100.00
2022-12-07T07:53:43.639Z,100.00
2022-12-07T07:56:10.171Z,100.00
2022-12-07T07:58:36.896Z,100.00
2022-12-07T08:01:07.710Z,100.00
2022-12-07T08:03:34.464Z,100.00
2022-12-07T08:06:02.437Z,100.00
2022-12-07T08:08:29.155Z,100.00
2022-12-07T08:10:55.930Z,100.00
2022-12-07T08:13:26.177Z,100.00
2022-12-07T08:15:57.331Z,100.00
2022-12-07T08:18:24.023Z,100.00
2022-12-07T08:20:50.704Z,100.00
2022-12-07T08:23:17.764Z,100.00
2022-12-07T08:25:44.725Z,100.00
2022-12-07T08:28:11.473Z,100.00
2022-12-07T08:30:38.324Z,100.00
2022-12-07T08:33:05.008Z,100.00
2022-12-07T08:35:34.985Z,100.00
2022-12-07T08:38:03.263Z,100.00
2022-12-07T08:40:30.173Z,100.00
2022-12-07T08:42:56.824Z,100.00
2022-12-07T08:45:27.422Z,100.00
2022-12-07T08:48:04.913Z,100.00
2022-12-07T08:50:33.745Z,100.00
2022-12-07T08:53:01.594Z,100.00
2022-12-07T08:55:29.993Z,100.00
2022-12-07T08:57:59.554Z,100.00
2022-12-07T09:00:27.192Z,100.00
2022-12-07T09:02:54.706Z,100.00
2022-12-07T09:05:21.924Z,100.00
2022-12-07T09:07:55.819Z,100.00
2022-12-07T09:10:22.548Z,100.00
2022-12-07T09:12:49.094Z,100.00
2022-12-07T09:15:15.703Z,100.00
2022-12-07T09:17:42.220Z,100.00
2022-12-07T09:20:09.110Z,100.00
2022-12-07T09:22:35.666Z,100.00
2022-12-07T09:25:03.703Z,100.00
2022-12-07T09:27:30.520Z,100.00
2022-12-07T09:29:57.086Z,100.00
2022-12-07T09:32:24.296Z,100.00
2022-12-07T09:34:51.054Z,100.00
2022-12-07T09:37:17.663Z,100.00
2022-12-07T09:39:49.760Z,100.00
2022-12-07T09:42:30.649Z,100.00
2022-12-07T09:44:59.543Z,100.00
2022-12-07T09:47:26.848Z,100.00
2022-12-07T09:50:01.047Z,100.00
2022-12-07T09:52:38.455Z,100.00
2022-12-07T09:55:12.567Z,100.00
2022-12-07T09:57:40.178Z,100.00
2022-12-07T10:00:17.522Z,100.00
2022-12-07T10:02:48.104Z,100.00
2022-12-07T10:05:24.163Z,100.00
2022-12-07T10:07:51.409Z,100.00
2022-12-07T10:10:35.320Z,100.00
2022-12-07T10:13:08.672Z,100.00
2022-12-07T10:15:54.593Z,100.00
2022-12-07T10:18:38.923Z,100.00
2022-12-07T10:21:13.904Z,100.00
2022-12-07T10:24:01.429Z,100.00
2022-12-07T10:26:39.413Z,100.00
2022-12-07T10:29:28.906Z,99.21
2022-12-07T10:33:13.445Z,99.54
2022-12-07T10:35:44.216Z,100.00
2022-12-07T10:38:17.756Z,100.00
2022-12-07T10:40:46.594Z,97.81
2022-12-07T10:43:13.409Z,98.78
2022-12-07T10:46:02.936Z,99.77
2022-12-07T10:48:49.839Z,97.79
2022-12-07T10:51:23.832Z,97.23
2022-12-07T10:53:59.351Z,97.53
2022-12-07T10:56:45.119Z,96.11
2022-12-07T10:59:47.047Z,95.86
2022-12-07T11:02:42.746Z,96.48
2022-12-07T11:05:31.152Z,95.87
2022-12-07T11:08:27.555Z,97.39
2022-12-07T11:11:11.115Z,96.47
2022-12-07T11:13:55.304Z,95.63
2022-12-07T11:16:40.533Z,94.77
2022-12-07T11:19:36.688Z,94.93
2022-12-07T11:22:33.503Z,94.20
2022-12-07T11:25:20.242Z,94.49
2022-12-07T11:28:00.599Z,94.56
2022-12-07T11:30:35.693Z,94.86
2022-12-07T11:33:18.088Z,94.16
2022-12-07T11:35:47.871Z,93.60
2022-12-07T11:38:19.944Z,92.63
2022-12-07T11:40:56.089Z,92.59
2022-12-07T11:43:33.085Z,92.02
2022-12-07T11:46:12.422Z,92.24
2022-12-07T11:49:12.160Z,92.88
2022-12-07T11:51:41.705Z,93.64
2022-12-07T11:54:33.013Z,93.10
2022-12-07T11:57:05.816Z,94.14
2022-12-07T11:59:39.392Z,94.64
2022-12-07T12:02:25.315Z,95.22
2022-12-07T12:04:59.454Z,94.88
2022-12-07T12:10:49.615Z,94.43
2022-12-07T12:16:51.463Z,92.77
2022-12-07T12:19:52.343Z,92.72
2022-12-07T12:22:22.066Z,92.70
2022-12-07T12:24:55.119Z,92.73
2022-12-07T12:27:31.922Z,90.25
2022-12-07T12:30:01.671Z,90.72
2022-12-07T12:32:40.078Z,90.20
2022-12-07T12:35:28.550Z,90.60
2022-12-07T12:37:56.404Z,90.61
2022-12-07T12:40:22.899Z,89.25
2022-12-07T12:42:56.450Z,88.76
2022-12-07T12:45:31.761Z,87.09
2022-12-07T12:48:02.101Z,87.33
2022-12-07T12:50:38.360Z,87.23
2022-12-07T12:53:13.159Z,87.91
2022-12-07T12:55:42.471Z,87.53
2022-12-07T12:58:21.068Z,86.77
2022-12-07T13:00:49.758Z,88.22
2022-12-07T13:03:30.133Z,87.90
2022-12-07T13:06:41.696Z,88.59
2022-12-07T13:09:22.583Z,88.23
2022-12-07T13:11:51.245Z,89.12
2022-12-07T13:14:56.656Z,88.67
2022-12-07T13:17:32.337Z,88.80
2022-12-07T13:20:12.763Z,88.91
2022-12-07T13:22:45.257Z,89.88
2022-12-07T13:25:32.792Z,90.37
2022-12-07T13:28:05.741Z,90.02
2022-12-07T13:30:33.137Z,90.64
2022-12-07T13:33:00.574Z,90.50
2022-12-07T13:35:31.368Z,91.16
2022-12-07T13:37:58.369Z,91.44
2022-12-07T13:40:25.373Z,91.50
2022-12-07T13:43:00.821Z,91.42
2022-12-07T13:45:49.169Z,92.63
2022-12-07T13:48:42.774Z,92.75
2022-12-07T13:51:22.640Z,93.70
2022-12-07T13:53:52.835Z,94.18
2022-12-07T13:56:21.916Z,94.04
2022-12-07T13:58:49.391Z,93.98
2022-12-07T14:01:16.347Z,95.01
2022-12-07T14:03:43.191Z,95.08
2022-12-07T14:06:29.388Z,95.38
2022-12-07T14:09:29.143Z,95.84
2022-12-07T14:11:58.060Z,96.39
2022-12-07T14:14:33.166Z,95.96
2022-12-07T14:17:24.850Z,96.06
2022-12-07T14:20:01.207Z,96.28
2022-12-07T14:22:27.799Z,96.61
2022-12-07T14:25:20.626Z,96.38
2022-12-07T14:27:54.198Z,96.77
2022-12-07T14:30:20.968Z,96.23
2022-12-07T14:32:52.115Z,97.47
2022-12-07T14:35:19.527Z,96.80
2022-12-07T14:37:49.083Z,97.42
2022-12-07T14:40:22.589Z,96.43
2022-12-07T14:42:54.677Z,96.34
2022-12-07T14:45:23.619Z,95.75
2022-12-07T14:50:39.719Z,95.61
2022-12-07T14:55:49.547Z,95.82
2022-12-07T14:58:17.787Z,94.69
2022-12-07T15:00:45.614Z,94.23
2022-12-07T15:03:14.027Z,94.70
2022-12-07T15:05:42.169Z,94.53
2022-12-07T15:08:14.389Z,94.85
2022-12-07T15:10:41.380Z,94.59
2022-12-07T15:13:27.169Z,94.39
2022-12-07T15:15:55.261Z,94.57
2022-12-07T15:18:23.413Z,94.90
2022-12-07T15:20:51.094Z,94.37
2022-12-07T15:23:17.871Z,95.27
2022-12-07T15:25:46.687Z,95.21
2022-12-07T15:28:13.851Z,95.50
2022-12-07T15:30:46.509Z,95.16
2022-12-07T15:33:14.056Z,95.66
2022-12-07T15:35:45.533Z,96.09
2022-12-07T15:38:12.433Z,96.03
2022-12-07T15:40:39.673Z,96.72
2022-12-07T15:43:26.892Z,96.62
2022-12-07T15:45:53.657Z,96.96
2022-12-07T15:48:28.924Z,98.44
2022-12-07T15:51:11.964Z,99.95
2022-12-07T15:53:38.477Z,100.00
2022-12-07T15:56:11.705Z,100.00
2022-12-07T15:58:38.851Z,100.00
2022-12-07T16:01:16.621Z,100.00
2022-12-07T16:03:44.317Z,100.00
2022-12-07T16:06:11.146Z,100.00
2022-12-07T16:08:38.128Z,100.00
2022-12-07T16:11:07.865Z,100.00
2022-12-07T16:13:35.274Z,100.00
2022-12-07T16:16:06.708Z,100.00
2022-12-07T16:18:33.826Z,100.00
2022-12-07T16:21:00.748Z,100.00
2022-12-07T16:23:28.644Z,100.00
2022-12-07T16:25:56.802Z,100.00
2022-12-07T16:28:23.314Z,100.00
2022-12-07T16:30:49.817Z,100.00
2022-12-07T16:33:16.661Z,100.00
2022-12-07T16:35:44.725Z,100.00
2022-12-07T16:38:11.304Z,100.00
2022-12-07T16:40:37.772Z,100.00
2022-12-07T16:43:04.987Z,100.00
2022-12-07T16:45:31.927Z,100.00
2022-12-07T16:47:58.888Z,100.00
2022-12-07T16:50:25.514Z,100.00
2022-12-07T16:52:52.332Z,100.00
2022-12-07T16:55:19.233Z,100.00
2022-12-07T16:57:46.069Z,100.00
2022-12-07T17:00:14.219Z,100.00
2022-12-07T17:02:40.804Z,100.00
2022-12-07T17:05:10.644Z,100.00
2022-12-07T17:07:37.206Z,100.00
2022-12-07T17:10:04.661Z,100.00
2022-12-07T17:12:31.441Z,100.00
2022-12-07T17:15:16.554Z,100.00
2022-12-07T17:17:47.062Z,100.00
2022-12-07T17:20:15.160Z,100.00
2022-12-07T17:22:41.872Z,100.00
2022-12-07T17:25:08.666Z,100.00
2022-12-07T17:27:35.255Z,100.00
2022-12-07T17:30:05.946Z,100.00
2022-12-07T17:32:32.620Z,100.00
2022-12-07T17:34:59.290Z,100.00
2022-12-07T17:37:26.042Z,100.00
2022-12-07T17:39:58.145Z,100.00
2022-12-07T17:42:40.026Z,100.00
2022-12-07T17:45:11.231Z,100.00
2022-12-07T17:47:38.286Z,100.00
2022-12-07T17:50:08.154Z,100.00
2022-12-07T17:52:57.044Z,100.00
2022-12-07T17:55:24.265Z,100.00
2022-12-07T17:57:51.946Z,100.00
2022-12-07T18:00:19.525Z,100.00
2022-12-07T18:02:46.231Z,100.00
2022-12-07T18:05:12.952Z,100.00
2022-12-07T18:07:40.955Z,100.00
2022-12-07T18:10:09.823Z,100.00
2022-12-07T18:12:36.402Z,100.00
2022-12-07T18:15:03.405Z,100.00
2022-12-07T18:17:30.184Z,100.00
2022-12-07T18:19:56.729Z,100.00
2022-12-07T18:22:23.392Z,100.00
2022-12-07T18:24:50.102Z,100.00
2022-12-07T18:27:16.649Z,100.00
2022-12-07T18:29:43.232Z,100.00
2022-12-07T18:32:10.345Z,100.00
2022-12-07T18:34:36.963Z,100.00
2022-12-07T18:37:03.662Z,100.00
2022-12-07T18:39:34.055Z,100.00
2022-12-07T18:42:01.106Z,100.00
2022-12-07T18:44:29.759Z,100.00
2022-12-07T18:46:56.526Z,100.00
2022-12-07T18:49:23.300Z,100.00
2022-12-07T18:51:50.657Z,100.00
2022-12-07T18:54:17.241Z,100.00
2022-12-07T18:56:43.775Z,100.00
2022-12-07T18:59:31.583Z,100.00
2022-12-07T19:01:58.495Z,100.00
2022-12-07T19:04:25.126Z,100.00
2022-12-07T19:06:51.816Z,100.00
2022-12-07T19:09:20.301Z,100.00
2022-12-07T19:11:49.780Z,100.00
2022-12-07T19:14:22.971Z,100.00
2022-12-07T19:16:51.417Z,100.00
2022-12-07T19:19:20.224Z,100.00
2022-12-07T19:21:47.477Z,100.00
2022-12-07T19:24:19.804Z,100.00
2022-12-07T19:26:48.249Z,100.00
2022-12-07T19:29:15.014Z,100.00
2022-12-07T19:31:41.748Z,100.00
2022-12-07T19:34:12.752Z,100.00
2022-12-07T19:36:39.848Z,100.00
2022-12-07T19:39:11.341Z,100.00
2022-12-07T19:41:43.525Z,100.00
2022-12-07T19:44:16.293Z,100.00
2022-12-07T19:46:48.562Z,100.00
2022-12-07T19:49:16.409Z,100.00
2022-12-07T19:51:45.183Z,100.00
2022-12-07T19:54:14.988Z,100.00
2022-12-07T19:56:43.215Z,100.00
2022-12-07T19:59:11.019Z,100.00
2022-12-07T20:01:40.508Z,100.00
2022-12-07T20:04:10.950Z,100.00
2022-12-07T20:06:37.810Z,100.00
2022-12-07T20:09:05.145Z,100.00
2022-12-07T20:11:50.608Z,100.00
2022-12-07T20:14:17.128Z,100.00
2022-12-07T20:16:46.493Z,100.00
2022-12-07T20:19:14.774Z,100.00
2022-12-07T20:21:42.492Z,100.00
2022-12-07T20:24:12.677Z,100.00
2022-12-07T20:26:39.668Z,100.00
2022-12-07T20:29:17.897Z,100.00
2022-12-07T20:31:47.149Z,100.00
2022-12-07T20:34:14.390Z,100.00
2022-12-07T20:36:41.410Z,100.00
2022-12-07T20:39:08.767Z,100.00
2022-12-07T20:41:54.272Z,100.00
2022-12-07T20:44:20.946Z,100.00
2022-12-07T20:46:48.196Z,100.00
2022-12-07T20:49:17.003Z,100.00
2022-12-07T20:51:44.503Z,100.00
2022-12-07T20:54:11.697Z,100.00
2022-12-07T20:56:38.821Z,100.00
2022-12-07T20:59:09.812Z,100.00
2022-12-07T21:01:37.324Z,100.00
2022-12-07T21:04:04.427Z,100.00
2022-12-07T21:06:31.178Z,100.00
2022-12-07T21:09:02.729Z,100.00
2022-12-07T21:11:32.804Z,100.00
2022-12-07T21:13:59.341Z,100.00
2022-12-07T21:16:29.061Z,100.00
2022-12-07T21:18:57.196Z,100.00
2022-12-07T21:21:24.134Z,100.00
2022-12-07T21:23:58.160Z,100.00
2022-12-07T21:26:29.017Z,100.00
2022-12-07T21:28:57.164Z,100.00
2022-12-07T21:31:26.838Z,100.00
2022-12-07T21:33:53.679Z,100.00
2022-12-07T21:36:24.420Z,100.00
2022-12-07T21:38:51.357Z,100.00
2022-12-07T21:41:21.928Z,100.00
2022-12-07T21:43:49.100Z,100.00
2022-12-07T21:46:16.803Z,100.00
2022-12-07T21:48:43.897Z,100.00
2022-12-07T21:51:12.904Z,100.00
2022-12-07T21:53:41.101Z,100.00
2022-12-07T21:56:19.498Z,100.00
2022-12-07T21:58:47.379Z,100.00
2022-12-07T22:01:27.164Z,100.00
2022-12-07T22:03:54.154Z,100.00
2022-12-07T22:06:23.911Z,100.00
2022-12-07T22:08:51.368Z,100.00
2022-12-07T22:11:18.676Z,100.00
2022-12-07T22:14:09.898Z,100.00
2022-12-07T22:16:37.861Z,100.00
2022-12-07T22:19:04.841Z,100.00
2022-12-07T22:21:32.073Z,100.00
2022-12-07T22:23:59.900Z,100.00
2022-12-07T22:26:27.398Z,100.00
2022-12-07T22:28:54.256Z,100.00
2022-12-07T22:31:22.653Z,100.00
2022-12-07T22:33:49.970Z,100.00
2022-12-07T22:36:17.992Z,100.00
2022-12-07T22:38:45.843Z,100.00
2022-12-07T22:41:17.331Z,100.00
2022-12-07T22:43:44.905Z,100.00
2022-12-07T22:46:12.155Z,100.00
2022-12-07T22:48:40.099Z,100.00
2022-12-07T22:51:07.808Z,100.00
2022-12-07T22:53:34.368Z,100.00
2022-12-07T22:56:01.091Z,100.00
2022-12-07T22:58:28.495Z,100.00
2022-12-07T23:00:55.214Z,100.00
2022-12-07T23:03:21.976Z,100.00
2022-12-07T23:05:49.787Z,100.00
2022-12-07T23:08:16.665Z,100.00
2022-12-07T23:10:48.880Z,100.00
2022-12-07T23:13:33.042Z,100.00
2022-12-07T23:16:01.033Z,100.00
2022-12-07T23:18:27.930Z,100.00
2022-12-07T23:20:58.012Z,100.00
2022-12-07T23:23:25.060Z,100.00
2022-12-07T23:25:51.821Z,100.00
2022-12-07T23:28:18.460Z,100.00
2022-12-07T23:30:45.531Z,100.00
2022-12-07T23:33:12.061Z,100.00
2022-12-07T23:35:38.567Z,100.00
2022-12-07T23:38:05.063Z,100.00
2022-12-07T23:40:31.634Z,100.00
2022-12-07T23:42:58.223Z,100.00
2022-12-07T23:45:24.810Z,100.00
2022-12-07T23:47:51.327Z,100.00
2022-12-07T23:50:17.905Z,100.00
2022-12-07T23:52:44.534Z,100.00
2022-12-07T23:55:11.006Z,100.00
2022-12-07T23:57:37.608Z,100.00
